createdAt,value
2023-04-04T00:00:01.616Z,45.3385434295288
2023-04-04T00:15:01.505Z,45.07538044094131
2023-04-04T00:30:02.399Z,45.122003194088705
2023-04-04T00:45:02.174Z,45.07749696790486
2023-04-04T01:00:01.883Z,45.062927186531766
2023-04-04T01:15:01.537Z,45.220039968148
2023-04-04T01:30:02.291Z,45.20578470475273
2023-04-04T01:45:01.997Z,45.25944882520773
2023-04-04T02:00:01.661Z,45.35040350549168
2023-04-04T02:15:02.337Z,45.246637773896765
2023-04-04T02:30:02.038Z,45.24887119437626
2023-04-04T02:45:01.697Z,45.2964209010911
2023-04-04T03:00:02.376Z,45.21090128313462
2023-04-04T03:15:02.071Z,45.326183389302244
2023-04-04T03:30:01.824Z,45.141295584384345
2023-04-04T03:45:01.496Z,45.39729727508327
2023-04-04T04:00:02.219Z,45.69274582750204
2023-04-04T04:15:02.068Z,45.1760398685022
2023-04-04T04:30:02.133Z,46.55089606164071
2023-04-04T04:45:01.820Z,45.87108818671199
2023-04-04T05:00:01.458Z,45.58209191740109
2023-04-04T05:15:02.160Z,45.66446301666038
2023-04-04T05:30:01.810Z,45.078956574252096
2023-04-04T05:45:01.418Z,43.25464083075175
2023-04-04T06:00:01.975Z,41.93373718490891
2023-04-04T06:15:01.640Z,41.63963148225067
2023-04-04T06:30:01.290Z,42.03643226508133
2023-04-04T06:45:02.073Z,41.784781965818276
2023-04-04T07:00:01.709Z,39.584940343672194
2023-04-04T07:15:01.393Z,32.097057448897154
2023-04-04T07:30:02.043Z,26.02596304075201
2023-04-04T07:45:01.712Z,24.089169587539605
2023-04-04T08:00:01.439Z,24.551931986831377
2023-04-04T08:15:01.118Z,23.988349699264855
2023-04-04T08:30:02.086Z,21.829029875795367
2023-04-04T08:45:01.770Z,18.803448233601614
2023-04-04T09:00:02.630Z,17.698406841702113
2023-04-04T09:15:02.356Z,19.488459430184598
2023-04-04T09:30:04.678Z,18.04241282956922
2023-04-04T09:45:02.258Z,16.77692915611752
2023-04-04T10:00:01.911Z,16.53939585858883
2023-04-04T10:15:01.529Z,15.19143727835279
2023-04-04T10:30:02.186Z,15.848063051023052
2023-04-04T10:45:16.961Z,15.32995945254059
2023-04-04T11:00:01.899Z,19.764342513319654
2023-04-04T11:15:02.186Z,18.0209613121721
2023-04-04T11:30:01.814Z,20.413344573276074
2023-04-04T11:45:01.503Z,18.07923494780482
2023-04-04T12:00:02.114Z,14.942137463459922
2023-04-04T12:15:10.787Z,16.240842124115314
2023-04-04T12:30:01.600Z,16.616867038780093
2023-04-04T12:45:02.237Z,15.104008611451519
2023-04-04T13:00:01.801Z,15.706256044646755
2023-04-04T13:15:01.472Z,17.175644493602785
2023-04-04T13:30:02.129Z,17.633172595964492
2023-04-04T13:45:01.800Z,17.85265622697047
2023-04-04T14:00:01.423Z,18.69249002070089
2023-04-04T14:15:02.106Z,18.49822339375831
2023-04-04T14:30:01.703Z,19.315572989225053
2023-04-04T14:45:01.296Z,19.602460969798198
2023-04-04T15:00:01.930Z,21.579858063622193
2023-04-04T15:15:01.564Z,22.995825925941894
2023-04-04T15:30:01.207Z,25.06761891092018
2023-04-04T15:45:01.874Z,25.04394639467398
2023-04-04T16:00:01.512Z,26.462946545918058
2023-04-04T16:15:02.129Z,30.401165185115623
2023-04-04T16:30:02.099Z,32.2628648409012
2023-04-04T16:45:01.878Z,35.064892598371635
2023-04-04T17:00:01.489Z,35.82764749344836
2023-04-04T17:15:02.124Z,36.02644550942241
2023-04-04T17:30:01.894Z,37.26951475410719
2023-04-04T17:45:01.554Z,38.98943688514628
2023-04-04T18:00:02.186Z,40.052091760473175
2023-04-04T18:15:01.856Z,40.71406121204517
2023-04-04T18:30:01.557Z,40.70767610182909
2023-04-04T18:45:02.226Z,40.66181821556028
2023-04-04T19:00:01.896Z,40.555312834683086
2023-04-04T19:15:01.594Z,41.04243619253061
2023-04-04T19:30:02.299Z,41.17742206386629
2023-04-04T19:45:02.049Z,41.243862589909014
2023-04-04T20:00:01.864Z,41.15227087150301
2023-04-04T20:15:01.718Z,41.57376281665209
2023-04-04T20:30:01.398Z,41.56055305648302
2023-04-04T20:45:02.072Z,41.38503852625058
2023-04-04T21:00:01.747Z,41.445729059226004
2023-04-04T21:15:01.414Z,41.45630848069437
2023-04-04T21:30:02.104Z,41.53422007242094
2023-04-04T21:45:01.885Z,42.43024281512007
2023-04-04T22:00:01.722Z,43.31528937784943
2023-04-04T22:15:01.436Z,43.68453816339039
2023-04-04T22:30:02.136Z,43.72452343507087
2023-04-04T22:45:01.842Z,43.730896657465685
2023-04-04T23:00:01.556Z,43.738465710588805
2023-04-04T23:15:01.425Z,43.75631173818586
2023-04-04T23:30:02.192Z,43.85470112165662
2023-04-04T23:45:01.842Z,43.76718746063365
